sensor_id;sensor_type;location;lat;lon;timestamp;P1;durP1;ratioP1;P2;durP2;ratioP2
21101;SDS011;10709;49.006;12.100;2022-07-23T00:01:25;15.63;;;10.75;;
21101;SDS011;10709;49.006;12.100;2022-07-23T00:03:53;11.77;;;9.52;;
21101;SDS011;10709;49.006;12.100;2022-07-23T00:06:21;10.95;;;9.77;;
21101;SDS011;10709;49.006;12.100;2022-07-23T00:08:48;12.55;;;9.45;;
21101;SDS011;10709;49.006;12.100;2022-07-23T00:11:15;10.88;;;9.63;;
21101;SDS011;10709;49.006;12.100;2022-07-23T00:13:42;9.77;;;8.77;;
21101;SDS011;10709;49.006;12.100;2022-07-23T00:16:09;11.52;;;10.00;;
21101;SDS011;10709;49.006;12.100;2022-07-23T00:18:35;12.02;;;9.95;;
21101;SDS011;10709;49.006;12.100;2022-07-23T00:21:02;11.82;;;9.65;;
21101;SDS011;10709;49.006;12.100;2022-07-23T00:23:29;11.73;;;9.10;;
21101;SDS011;10709;49.006;12.100;2022-07-23T00:25:56;12.13;;;9.63;;
21101;SDS011;10709;49.006;12.100;2022-07-23T00:28:23;13.02;;;10.20;;
21101;SDS011;10709;49.006;12.100;2022-07-23T00:30:50;11.32;;;9.70;;
21101;SDS011;10709;49.006;12.100;2022-07-23T00:33:16;11.40;;;9.98;;
21101;SDS011;10709;49.006;12.100;2022-07-23T00:35:43;12.88;;;9.77;;
21101;SDS011;10709;49.006;12.100;2022-07-23T00:38:10;11.85;;;9.70;;
21101;SDS011;10709;49.006;12.100;2022-07-23T00:40:37;16.23;;;10.25;;
21101;SDS011;10709;49.006;12.100;2022-07-23T00:43:05;10.88;;;9.70;;
21101;SDS011;10709;49.006;12.100;2022-07-23T00:45:31;13.10;;;10.35;;
21101;SDS011;10709;49.006;12.100;2022-07-23T00:47:58;11.57;;;10.38;;
21101;SDS011;10709;49.006;12.100;2022-07-23T00:50:25;13.63;;;10.40;;
21101;SDS011;10709;49.006;12.100;2022-07-23T00:52:52;13.23;;;10.25;;
21101;SDS011;10709;49.006;12.100;2022-07-23T00:55:19;11.88;;;10.68;;
21101;SDS011;10709;49.006;12.100;2022-07-23T00:57:46;12.85;;;10.82;;
21101;SDS011;10709;49.006;12.100;2022-07-23T01:00:13;13.10;;;10.73;;
21101;SDS011;10709;49.006;12.100;2022-07-23T01:02:41;12.75;;;10.60;;
21101;SDS011;10709;49.006;12.100;2022-07-23T01:05:08;11.60;;;10.40;;
21101;SDS011;10709;49.006;12.100;2022-07-23T01:07:35;10.90;;;9.63;;
21101;SDS011;10709;49.006;12.100;2022-07-23T01:10:03;14.95;;;11.00;;
21101;SDS011;10709;49.006;12.100;2022-07-23T01:12:31;13.60;;;10.82;;
21101;SDS011;10709;49.006;12.100;2022-07-23T01:14:59;12.02;;;10.82;;
21101;SDS011;10709;49.006;12.100;2022-07-23T01:17:26;14.13;;;11.18;;
21101;SDS011;10709;49.006;12.100;2022-07-23T01:19:54;14.02;;;10.88;;
21101;SDS011;10709;49.006;12.100;2022-07-23T01:22:20;14.40;;;10.48;;
21101;SDS011;10709;49.006;12.100;2022-07-23T01:24:47;15.43;;;11.23;;
21101;SDS011;10709;49.006;12.100;2022-07-23T01:27:14;12.20;;;10.38;;
21101;SDS011;10709;49.006;12.100;2022-07-23T01:29:40;12.77;;;10.52;;
21101;SDS011;10709;49.006;12.100;2022-07-23T01:32:07;16.08;;;11.93;;
21101;SDS011;10709;49.006;12.100;2022-07-23T01:34:33;12.77;;;11.18;;
21101;SDS011;10709;49.006;12.100;2022-07-23T01:37:00;17.92;;;11.93;;
21101;SDS011;10709;49.006;12.100;2022-07-23T01:39:26;16.48;;;11.93;;
21101;SDS011;10709;49.006;12.100;2022-07-23T01:41:53;12.50;;;10.85;;
21101;SDS011;10709;49.006;12.100;2022-07-23T01:44:19;11.77;;;10.32;;
21101;SDS011;10709;49.006;12.100;2022-07-23T01:46:46;12.02;;;10.32;;
21101;SDS011;10709;49.006;12.100;2022-07-23T01:49:12;14.00;;;10.98;;
21101;SDS011;10709;49.006;12.100;2022-07-23T01:51:39;11.27;;;10.18;;
21101;SDS011;10709;49.006;12.100;2022-07-23T01:54:26;13.65;;;10.60;;
21101;SDS011;10709;49.006;12.100;2022-07-23T01:56:53;12.63;;;11.25;;
21101;SDS011;10709;49.006;12.100;2022-07-23T01:59:21;13.82;;;11.20;;
21101;SDS011;10709;49.006;12.100;2022-07-23T02:01:48;12.88;;;10.43;;
21101;SDS011;10709;49.006;12.100;2022-07-23T02:04:17;13.30;;;10.50;;
21101;SDS011;10709;49.006;12.100;2022-07-23T02:06:44;14.13;;;10.60;;
21101;SDS011;10709;49.006;12.100;2022-07-23T02:09:11;13.90;;;10.65;;
21101;SDS011;10709;49.006;12.100;2022-07-23T02:11:37;12.75;;;10.88;;
21101;SDS011;10709;49.006;12.100;2022-07-23T02:14:04;13.43;;;10.23;;
21101;SDS011;10709;49.006;12.100;2022-07-23T02:16:30;11.02;;;9.65;;
21101;SDS011;10709;49.006;12.100;2022-07-23T02:18:57;10.88;;;9.77;;
21101;SDS011;10709;49.006;12.100;2022-07-23T02:21:24;15.63;;;10.70;;
21101;SDS011;10709;49.006;12.100;2022-07-23T02:23:51;13.82;;;10.57;;
21101;SDS011;10709;49.006;12.100;2022-07-23T02:26:17;12.80;;;11.38;;
21101;SDS011;10709;49.006;12.100;2022-07-23T02:28:46;12.93;;;11.02;;
21101;SDS011;10709;49.006;12.100;2022-07-23T02:31:13;16.92;;;10.65;;
21101;SDS011;10709;49.006;12.100;2022-07-23T02:33:39;11.32;;;10.10;;
21101;SDS011;10709;49.006;12.100;2022-07-23T02:36:06;13.52;;;10.43;;
21101;SDS011;10709;49.006;12.100;2022-07-23T02:38:32;14.32;;;10.65;;
21101;SDS011;10709;49.006;12.100;2022-07-23T02:40:59;10.98;;;9.88;;
21101;SDS011;10709;49.006;12.100;2022-07-23T02:43:25;11.52;;;9.88;;
21101;SDS011;10709;49.006;12.100;2022-07-23T02:45:52;13.52;;;9.68;;
21101;SDS011;10709;49.006;12.100;2022-07-23T02:48:19;11.93;;;9.85;;
21101;SDS011;10709;49.006;12.100;2022-07-23T02:50:45;12.30;;;9.13;;
21101;SDS011;10709;49.006;12.100;2022-07-23T02:53:12;10.75;;;9.65;;
21101;SDS011;10709;49.006;12.100;2022-07-23T02:55:38;11.23;;;8.38;;
21101;SDS011;10709;49.006;12.100;2022-07-23T02:58:05;9.85;;;8.82;;
21101;SDS011;10709;49.006;12.100;2022-07-23T03:00:31;10.93;;;9.10;;
21101;SDS011;10709;49.006;12.100;2022-07-23T03:02:58;13.73;;;9.30;;
21101;SDS011;10709;49.006;12.100;2022-07-23T03:05:24;11.43;;;8.82;;
21101;SDS011;10709;49.006;12.100;2022-07-23T03:07:50;9.68;;;8.57;;
21101;SDS011;10709;49.006;12.100;2022-07-23T03:10:17;10.68;;;8.57;;
21101;SDS011;10709;49.006;12.100;2022-07-23T03:12:43;10.75;;;8.30;;
21101;SDS011;10709;49.006;12.100;2022-07-23T03:15:10;8.65;;;7.82;;
21101;SDS011;10709;49.006;12.100;2022-07-23T03:17:36;8.90;;;8.00;;
21101;SDS011;10709;49.006;12.100;2022-07-23T03:20:03;10.00;;;7.80;;
21101;SDS011;10709;49.006;12.100;2022-07-23T03:22:30;11.68;;;7.57;;
21101;SDS011;10709;49.006;12.100;2022-07-23T03:24:56;11.68;;;8.05;;
21101;SDS011;10709;49.006;12.100;2022-07-23T03:27:23;11.38;;;8.23;;
21101;SDS011;10709;49.006;12.100;2022-07-23T03:29:52;11.55;;;8.30;;
21101;SDS011;10709;49.006;12.100;2022-07-23T03:32:20;10.13;;;7.50;;
21101;SDS011;10709;49.006;12.100;2022-07-23T03:34:46;9.07;;;7.45;;
21101;SDS011;10709;49.006;12.100;2022-07-23T03:37:13;10.23;;;7.72;;
21101;SDS011;10709;49.006;12.100;2022-07-23T03:39:42;9.65;;;8.05;;
21101;SDS011;10709;49.006;12.100;2022-07-23T03:42:08;9.23;;;7.70;;
21101;SDS011;10709;49.006;12.100;2022-07-23T03:44:35;9.52;;;7.20;;
21101;SDS011;10709;49.006;12.100;2022-07-23T03:47:03;10.90;;;7.85;;
21101;SDS011;10709;49.006;12.100;2022-07-23T03:49:30;9.25;;;7.63;;
21101;SDS011;10709;49.006;12.100;2022-07-23T03:51:57;9.63;;;7.40;;
21101;SDS011;10709;49.006;12.100;2022-07-23T03:54:24;8.40;;;7.60;;
21101;SDS011;10709;49.006;12.100;2022-07-23T03:56:50;9.73;;;7.70;;
21101;SDS011;10709;49.006;12.100;2022-07-23T03:59:17;8.82;;;6.95;;
21101;SDS011;10709;49.006;12.100;2022-07-23T04:01:49;9.38;;;7.50;;
21101;SDS011;10709;49.006;12.100;2022-07-23T04:04:15;7.38;;;6.68;;
21101;SDS011;10709;49.006;12.100;2022-07-23T04:06:42;7.28;;;6.43;;
21101;SDS011;10709;49.006;12.100;2022-07-23T04:09:08;7.38;;;5.97;;
21101;SDS011;10709;49.006;12.100;2022-07-23T04:11:35;7.97;;;5.93;;
21101;SDS011;10709;49.006;12.100;2022-07-23T04:14:01;8.00;;;5.60;;
21101;SDS011;10709;49.006;12.100;2022-07-23T04:16:28;6.85;;;5.70;;
21101;SDS011;10709;49.006;12.100;2022-07-23T04:18:54;6.75;;;5.38;;
21101;SDS011;10709;49.006;12.100;2022-07-23T04:21:21;7.47;;;5.68;;
21101;SDS011;10709;49.006;12.100;2022-07-23T04:23:47;6.60;;;5.22;;
21101;SDS011;10709;49.006;12.100;2022-07-23T04:26:14;7.00;;;5.90;;
21101;SDS011;10709;49.006;12.100;2022-07-23T04:28:43;7.30;;;5.32;;
21101;SDS011;10709;49.006;12.100;2022-07-23T04:31:09;8.02;;;5.47;;
21101;SDS011;10709;49.006;12.100;2022-07-23T04:33:36;7.00;;;5.68;;
21101;SDS011;10709;49.006;12.100;2022-07-23T04:36:03;8.88;;;5.78;;
21101;SDS011;10709;49.006;12.100;2022-07-23T04:38:30;6.07;;;5.45;;
21101;SDS011;10709;49.006;12.100;2022-07-23T04:40:56;6.10;;;5.47;;
21101;SDS011;10709;49.006;12.100;2022-07-23T04:43:22;7.35;;;4.93;;
21101;SDS011;10709;49.006;12.100;2022-07-23T04:45:49;5.30;;;4.80;;
21101;SDS011;10709;49.006;12.100;2022-07-23T04:48:16;7.32;;;4.80;;
21101;SDS011;10709;49.006;12.100;2022-07-23T04:50:43;6.05;;;5.00;;
21101;SDS011;10709;49.006;12.100;2022-07-23T04:53:10;7.68;;;5.55;;
21101;SDS011;10709;49.006;12.100;2022-07-23T04:55:36;9.68;;;5.78;;
21101;SDS011;10709;49.006;12.100;2022-07-23T04:58:03;7.05;;;5.43;;
21101;SDS011;10709;49.006;12.100;2022-07-23T05:00:29;6.95;;;5.70;;
21101;SDS011;10709;49.006;12.100;2022-07-23T05:02:56;7.60;;;5.13;;
21101;SDS011;10709;49.006;12.100;2022-07-23T05:05:22;6.40;;;5.53;;
21101;SDS011;10709;49.006;12.100;2022-07-23T05:07:49;6.03;;;5.30;;
21101;SDS011;10709;49.006;12.100;2022-07-23T05:10:15;6.05;;;5.47;;
21101;SDS011;10709;49.006;12.100;2022-07-23T05:12:41;6.93;;;5.65;;
21101;SDS011;10709;49.006;12.100;2022-07-23T05:15:08;7.03;;;5.45;;
21101;SDS011;10709;49.006;12.100;2022-07-23T05:17:34;7.70;;;5.30;;
21101;SDS011;10709;49.006;12.100;2022-07-23T05:20:01;7.80;;;5.25;;
21101;SDS011;10709;49.006;12.100;2022-07-23T05:22:28;6.90;;;5.30;;
21101;SDS011;10709;49.006;12.100;2022-07-23T05:24:54;6.40;;;5.20;;
21101;SDS011;10709;49.006;12.100;2022-07-23T05:27:21;6.82;;;5.10;;
21101;SDS011;10709;49.006;12.100;2022-07-23T05:29:47;5.85;;;5.00;;
21101;SDS011;10709;49.006;12.100;2022-07-23T05:32:14;5.75;;;5.25;;
21101;SDS011;10709;49.006;12.100;2022-07-23T05:34:40;6.85;;;5.40;;
21101;SDS011;10709;49.006;12.100;2022-07-23T05:37:07;7.22;;;5.05;;
21101;SDS011;10709;49.006;12.100;2022-07-23T05:39:33;5.22;;;4.70;;
21101;SDS011;10709;49.006;12.100;2022-07-23T05:42:00;7.47;;;5.00;;
21101;SDS011;10709;49.006;12.100;2022-07-23T05:44:26;5.43;;;4.88;;
21101;SDS011;10709;49.006;12.100;2022-07-23T05:46:59;5.93;;;5.22;;
21101;SDS011;10709;49.006;12.100;2022-07-23T05:49:26;7.35;;;5.63;;
21101;SDS011;10709;49.006;12.100;2022-07-23T05:51:53;5.97;;;5.10;;
21101;SDS011;10709;49.006;12.100;2022-07-23T05:54:19;8.68;;;5.78;;
21101;SDS011;10709;49.006;12.100;2022-07-23T05:56:46;6.32;;;5.50;;
21101;SDS011;10709;49.006;12.100;2022-07-23T05:59:12;7.15;;;5.60;;
21101;SDS011;10709;49.006;12.100;2022-07-23T06:01:40;6.43;;;5.78;;
21101;SDS011;10709;49.006;12.100;2022-07-23T06:04:07;6.75;;;5.63;;
21101;SDS011;10709;49.006;12.100;2022-07-23T06:06:33;7.82;;;6.10;;
21101;SDS011;10709;49.006;12.100;2022-07-23T06:09:00;8.90;;;5.88;;
21101;SDS011;10709;49.006;12.100;2022-07-23T06:11:28;7.28;;;6.13;;
21101;SDS011;10709;49.006;12.100;2022-07-23T06:13:55;6.85;;;5.72;;
21101;SDS011;10709;49.006;12.100;2022-07-23T06:16:22;9.45;;;5.55;;
21101;SDS011;10709;49.006;12.100;2022-07-23T06:18:48;11.40;;;6.55;;
21101;SDS011;10709;49.006;12.100;2022-07-23T06:21:15;8.55;;;6.03;;
21101;SDS011;10709;49.006;12.100;2022-07-23T06:24:02;8.90;;;5.63;;
21101;SDS011;10709;49.006;12.100;2022-07-23T06:26:28;7.47;;;6.20;;
21101;SDS011;10709;49.006;12.100;2022-07-23T06:28:55;6.68;;;5.95;;
21101;SDS011;10709;49.006;12.100;2022-07-23T06:31:21;7.70;;;5.63;;
21101;SDS011;10709;49.006;12.100;2022-07-23T06:33:48;7.28;;;5.55;;
21101;SDS011;10709;49.006;12.100;2022-07-23T06:36:14;9.30;;;5.97;;
21101;SDS011;10709;49.006;12.100;2022-07-23T06:38:41;7.72;;;5.88;;
21101;SDS011;10709;49.006;12.100;2022-07-23T06:41:09;7.35;;;5.80;;
21101;SDS011;10709;49.006;12.100;2022-07-23T06:43:35;6.45;;;5.45;;
21101;SDS011;10709;49.006;12.100;2022-07-23T06:46:02;5.65;;;5.10;;
21101;SDS011;10709;49.006;12.100;2022-07-23T06:48:28;8.02;;;4.93;;
21101;SDS011;10709;49.006;12.100;2022-07-23T06:50:55;6.13;;;5.28;;
21101;SDS011;10709;49.006;12.100;2022-07-23T06:53:21;6.68;;;5.47;;
21101;SDS011;10709;49.006;12.100;2022-07-23T06:55:48;5.85;;;5.25;;
21101;SDS011;10709;49.006;12.100;2022-07-23T06:58:14;7.78;;;5.25;;
21101;SDS011;10709;49.006;12.100;2022-07-23T07:00:41;7.32;;;5.00;;
21101;SDS011;10709;49.006;12.100;2022-07-23T07:03:07;5.70;;;5.05;;
21101;SDS011;10709;49.006;12.100;2022-07-23T07:05:34;8.50;;;5.57;;
21101;SDS011;10709;49.006;12.100;2022-07-23T07:08:00;6.47;;;4.60;;
21101;SDS011;10709;49.006;12.100;2022-07-23T07:10:27;6.82;;;4.93;;
21101;SDS011;10709;49.006;12.100;2022-07-23T07:12:53;7.68;;;4.57;;
21101;SDS011;10709;49.006;12.100;2022-07-23T07:15:20;5.95;;;4.75;;
21101;SDS011;10709;49.006;12.100;2022-07-23T07:17:46;5.43;;;4.80;;
21101;SDS011;10709;49.006;12.100;2022-07-23T07:20:13;5.88;;;4.95;;
21101;SDS011;10709;49.006;12.100;2022-07-23T07:22:40;6.10;;;4.55;;
21101;SDS011;10709;49.006;12.100;2022-07-23T07:25:06;5.10;;;4.60;;
21101;SDS011;10709;49.006;12.100;2022-07-23T07:27:34;6.22;;;4.53;;
21101;SDS011;10709;49.006;12.100;2022-07-23T07:30:00;6.32;;;4.70;;
21101;SDS011;10709;49.006;12.100;2022-07-23T07:32:27;5.50;;;4.38;;
21101;SDS011;10709;49.006;12.100;2022-07-23T07:35:13;4.80;;;4.30;;
21101;SDS011;10709;49.006;12.100;2022-07-23T07:37:40;5.25;;;4.43;;
21101;SDS011;10709;49.006;12.100;2022-07-23T07:40:07;4.57;;;4.18;;
21101;SDS011;10709;49.006;12.100;2022-07-23T07:42:34;6.57;;;4.53;;
21101;SDS011;10709;49.006;12.100;2022-07-23T07:45:00;5.22;;;4.30;;
21101;SDS011;10709;49.006;12.100;2022-07-23T07:47:27;5.90;;;4.60;;
21101;SDS011;10709;49.006;12.100;2022-07-23T07:49:53;4.40;;;4.00;;
21101;SDS011;10709;49.006;12.100;2022-07-23T07:52:20;5.10;;;3.95;;
21101;SDS011;10709;49.006;12.100;2022-07-23T07:54:47;6.05;;;4.13;;
21101;SDS011;10709;49.006;12.100;2022-07-23T07:57:14;3.90;;;3.53;;
21101;SDS011;10709;49.006;12.100;2022-07-23T07:59:42;4.45;;;3.63;;
21101;SDS011;10709;49.006;12.100;2022-07-23T08:02:11;5.47;;;4.20;;
21101;SDS011;10709;49.006;12.100;2022-07-23T08:04:37;4.40;;;3.67;;
21101;SDS011;10709;49.006;12.100;2022-07-23T08:07:03;4.28;;;3.88;;
21101;SDS011;10709;49.006;12.100;2022-07-23T08:09:30;4.47;;;4.07;;
21101;SDS011;10709;49.006;12.100;2022-07-23T08:11:56;5.82;;;4.22;;
21101;SDS011;10709;49.006;12.100;2022-07-23T08:14:23;4.47;;;3.92;;
21101;SDS011;10709;49.006;12.100;2022-07-23T08:16:49;4.72;;;4.28;;
21101;SDS011;10709;49.006;12.100;2022-07-23T08:19:36;4.47;;;4.07;;
21101;SDS011;10709;49.006;12.100;2022-07-23T08:22:02;4.45;;;4.05;;
21101;SDS011;10709;49.006;12.100;2022-07-23T08:24:29;6.22;;;3.75;;
21101;SDS011;10709;49.006;12.100;2022-07-23T08:26:55;9.25;;;4.15;;
21101;SDS011;10709;49.006;12.100;2022-07-23T08:29:21;3.97;;;3.58;;
21101;SDS011;10709;49.006;12.100;2022-07-23T08:31:52;4.03;;;3.60;;
21101;SDS011;10709;49.006;12.100;2022-07-23T08:34:19;4.05;;;3.58;;
21101;SDS011;10709;49.006;12.100;2022-07-23T08:36:45;4.00;;;3.60;;
21101;SDS011;10709;49.006;12.100;2022-07-23T08:39:11;3.75;;;3.45;;
21101;SDS011;10709;49.006;12.100;2022-07-23T08:41:39;4.13;;;3.72;;
21101;SDS011;10709;49.006;12.100;2022-07-23T08:44:07;4.25;;;3.83;;
21101;SDS011;10709;49.006;12.100;2022-07-23T08:46:34;4.05;;;3.67;;
21101;SDS011;10709;49.006;12.100;2022-07-23T08:49:08;4.30;;;3.90;;
21101;SDS011;10709;49.006;12.100;2022-07-23T08:51:34;4.18;;;3.78;;
21101;SDS011;10709;49.006;12.100;2022-07-23T08:54:01;4.43;;;4.03;;
21101;SDS011;10709;49.006;12.100;2022-07-23T08:56:28;5.07;;;4.00;;
21101;SDS011;10709;49.006;12.100;2022-07-23T08:58:55;4.40;;;4.00;;
21101;SDS011;10709;49.006;12.100;2022-07-23T09:01:21;4.22;;;3.92;;
21101;SDS011;10709;49.006;12.100;2022-07-23T09:03:48;5.47;;;4.40;;
21101;SDS011;10709;49.006;12.100;2022-07-23T09:06:14;4.70;;;4.25;;
21101;SDS011;10709;49.006;12.100;2022-07-23T09:08:42;5.93;;;4.32;;
21101;SDS011;10709;49.006;12.100;2022-07-23T09:11:11;4.95;;;4.45;;
21101;SDS011;10709;49.006;12.100;2022-07-23T09:13:40;9.27;;;4.45;;
21101;SDS011;10709;49.006;12.100;2022-07-23T09:16:11;4.80;;;4.35;;
21101;SDS011;10709;49.006;12.100;2022-07-23T09:19:04;5.00;;;4.40;;
21101;SDS011;10709;49.006;12.100;2022-07-23T09:21:35;6.50;;;4.40;;
21101;SDS011;10709;49.006;12.100;2022-07-23T09:24:07;4.72;;;4.32;;
21101;SDS011;10709;49.006;12.100;2022-07-23T09:26:41;4.97;;;4.43;;
21101;SDS011;10709;49.006;12.100;2022-07-23T09:29:12;4.90;;;4.50;;
21101;SDS011;10709;49.006;12.100;2022-07-23T09:31:46;4.90;;;4.50;;
21101;SDS011;10709;49.006;12.100;2022-07-23T09:34:21;5.47;;;4.97;;
21101;SDS011;10709;49.006;12.100;2022-07-23T09:36:50;4.97;;;4.50;;
21101;SDS011;10709;49.006;12.100;2022-07-23T09:41:57;7.47;;;5.10;;
21101;SDS011;10709;49.006;12.100;2022-07-23T09:44:42;4.93;;;4.53;;
21101;SDS011;10709;49.006;12.100;2022-07-23T09:47:14;6.22;;;4.90;;
21101;SDS011;10709;49.006;12.100;2022-07-23T09:49:42;7.18;;;5.38;;
21101;SDS011;10709;49.006;12.100;2022-07-23T09:52:28;6.32;;;4.78;;
21101;SDS011;10709;49.006;12.100;2022-07-23T09:55:02;6.03;;;5.20;;
21101;SDS011;10709;49.006;12.100;2022-07-23T09:57:31;5.30;;;4.80;;
21101;SDS011;10709;49.006;12.100;2022-07-23T10:00:00;5.90;;;5.40;;
21101;SDS011;10709;49.006;12.100;2022-07-23T10:02:27;6.35;;;5.72;;
21101;SDS011;10709;49.006;12.100;2022-07-23T10:04:54;6.20;;;5.57;;
21101;SDS011;10709;49.006;12.100;2022-07-23T10:07:21;7.85;;;5.88;;
21101;SDS011;10709;49.006;12.100;2022-07-23T10:09:50;5.95;;;5.40;;
21101;SDS011;10709;49.006;12.100;2022-07-23T10:12:19;6.53;;;5.88;;
21101;SDS011;10709;49.006;12.100;2022-07-23T10:15:00;6.25;;;5.65;;
21101;SDS011;10709;49.006;12.100;2022-07-23T10:17:28;7.07;;;6.00;;
21101;SDS011;10709;49.006;12.100;2022-07-23T10:19:55;6.80;;;6.10;;
21101;SDS011;10709;49.006;12.100;2022-07-23T10:22:25;7.60;;;6.90;;
21101;SDS011;10709;49.006;12.100;2022-07-23T10:31:02;8.00;;;5.95;;
21101;SDS011;10709;49.006;12.100;2022-07-23T10:37:03;7.45;;;6.68;;
21101;SDS011;10709;49.006;12.100;2022-07-23T10:39:33;7.72;;;6.40;;
21101;SDS011;10709;49.006;12.100;2022-07-23T10:42:07;7.20;;;6.50;;
21101;SDS011;10709;49.006;12.100;2022-07-23T10:44:39;7.80;;;6.60;;
21101;SDS011;10709;49.006;12.100;2022-07-23T10:47:10;7.15;;;6.43;;
21101;SDS011;10709;49.006;12.100;2022-07-23T10:58:03;6.72;;;6.18;;
21101;SDS011;10709;49.006;12.100;2022-07-23T11:00:31;6.50;;;5.82;;
21101;SDS011;10709;49.006;12.100;2022-07-23T11:02:59;6.55;;;5.85;;
21101;SDS011;10709;49.006;12.100;2022-07-23T11:05:43;6.68;;;6.03;;
21101;SDS011;10709;49.006;12.100;2022-07-23T11:08:15;7.25;;;6.38;;
21101;SDS011;10709;49.006;12.100;2022-07-23T11:10:47;8.00;;;5.68;;
21101;SDS011;10709;49.006;12.100;2022-07-23T11:16:06;6.55;;;5.88;;
21101;SDS011;10709;49.006;12.100;2022-07-23T11:34:30;11.63;;;7.65;;
21101;SDS011;10709;49.006;12.100;2022-07-23T11:37:07;21.23;;;10.20;;
21101;SDS011;10709;49.006;12.100;2022-07-23T11:39:35;16.25;;;9.55;;
21101;SDS011;10709;49.006;12.100;2022-07-23T11:42:03;11.30;;;7.88;;
21101;SDS011;10709;49.006;12.100;2022-07-23T11:44:32;12.35;;;7.90;;
21101;SDS011;10709;49.006;12.100;2022-07-23T11:49:34;8.80;;;7.80;;
21101;SDS011;10709;49.006;12.100;2022-07-23T11:54:31;9.50;;;7.80;;
21101;SDS011;10709;49.006;12.100;2022-07-23T11:57:05;8.95;;;7.60;;
21101;SDS011;10709;49.006;12.100;2022-07-23T11:59:32;7.97;;;6.97;;
21101;SDS011;10709;49.006;12.100;2022-07-23T12:02:02;9.25;;;7.13;;
21101;SDS011;10709;49.006;12.100;2022-07-23T12:04:44;8.10;;;7.30;;
21101;SDS011;10709;49.006;12.100;2022-07-23T12:07:27;8.52;;;7.60;;
21101;SDS011;10709;49.006;12.100;2022-07-23T12:10:15;8.43;;;7.60;;
21101;SDS011;10709;49.006;12.100;2022-07-23T12:12:48;8.73;;;7.82;;
21101;SDS011;10709;49.006;12.100;2022-07-23T12:15:21;9.20;;;8.15;;
21101;SDS011;10709;49.006;12.100;2022-07-23T12:17:50;10.18;;;7.80;;
21101;SDS011;10709;49.006;12.100;2022-07-23T12:20:25;9.73;;;8.73;;
21101;SDS011;10709;49.006;12.100;2022-07-23T12:22:58;9.27;;;8.38;;
21101;SDS011;10709;49.006;12.100;2022-07-23T12:25:36;9.70;;;8.70;;
21101;SDS011;10709;49.006;12.100;2022-07-23T12:28:08;8.93;;;8.13;;
21101;SDS011;10709;49.006;12.100;2022-07-23T12:30:40;8.52;;;7.65;;
21101;SDS011;10709;49.006;12.100;2022-07-23T12:33:10;8.10;;;7.40;;
21101;SDS011;10709;49.006;12.100;2022-07-23T12:35:41;11.20;;;8.48;;
21101;SDS011;10709;49.006;12.100;2022-07-23T12:38:11;8.55;;;7.75;;
21101;SDS011;10709;49.006;12.100;2022-07-23T12:40:49;8.77;;;7.72;;
21101;SDS011;10709;49.006;12.100;2022-07-23T12:43:38;8.77;;;7.88;;
21101;SDS011;10709;49.006;12.100;2022-07-23T12:46:07;8.23;;;7.45;;
21101;SDS011;10709;49.006;12.100;2022-07-23T12:48:56;8.27;;;7.47;;
21101;SDS011;10709;49.006;12.100;2022-07-23T12:51:29;8.77;;;7.95;;
21101;SDS011;10709;49.006;12.100;2022-07-23T12:56:33;8.70;;;7.90;;
21101;SDS011;10709;49.006;12.100;2022-07-23T13:01:34;8.65;;;7.78;;
21101;SDS011;10709;49.006;12.100;2022-07-23T13:04:06;8.63;;;7.43;;
21101;SDS011;10709;49.006;12.100;2022-07-23T13:06:51;7.35;;;6.65;;
21101;SDS011;10709;49.006;12.100;2022-07-23T13:09:25;8.27;;;7.47;;
21101;SDS011;10709;49.006;12.100;2022-07-23T13:11:57;8.30;;;7.50;;
21101;SDS011;10709;49.006;12.100;2022-07-23T13:14:25;8.07;;;7.35;;
21101;SDS011;10709;49.006;12.100;2022-07-23T13:16:52;10.45;;;7.70;;
21101;SDS011;10709;49.006;12.100;2022-07-23T13:19:22;7.47;;;6.72;;
21101;SDS011;10709;49.006;12.100;2022-07-23T13:21:51;7.55;;;5.85;;
21101;SDS011;10709;49.006;12.100;2022-07-23T13:24:18;7.95;;;6.38;;
21101;SDS011;10709;49.006;12.100;2022-07-23T13:26:45;7.13;;;6.53;;
21101;SDS011;10709;49.006;12.100;2022-07-23T13:29:13;8.88;;;6.70;;
21101;SDS011;10709;49.006;12.100;2022-07-23T13:31:42;6.60;;;6.00;;
21101;SDS011;10709;49.006;12.100;2022-07-23T13:34:11;7.47;;;6.78;;
21101;SDS011;10709;49.006;12.100;2022-07-23T13:36:38;7.65;;;6.80;;
21101;SDS011;10709;49.006;12.100;2022-07-23T13:39:05;7.47;;;6.78;;
21101;SDS011;10709;49.006;12.100;2022-07-23T13:41:35;6.68;;;5.70;;
21101;SDS011;10709;49.006;12.100;2022-07-23T13:44:02;6.20;;;5.60;;
21101;SDS011;10709;49.006;12.100;2022-07-23T13:46:29;8.27;;;6.15;;
21101;SDS011;10709;49.006;12.100;2022-07-23T13:48:56;6.72;;;6.13;;
21101;SDS011;10709;49.006;12.100;2022-07-23T13:51:22;7.38;;;6.13;;
21101;SDS011;10709;49.006;12.100;2022-07-23T13:53:51;7.78;;;5.80;;
21101;SDS011;10709;49.006;12.100;2022-07-23T13:56:18;5.75;;;5.25;;
21101;SDS011;10709;49.006;12.100;2022-07-23T13:58:45;6.20;;;5.60;;
21101;SDS011;10709;49.006;12.100;2022-07-23T14:01:12;6.28;;;5.68;;
21101;SDS011;10709;49.006;12.100;2022-07-23T14:03:39;6.03;;;5.53;;
21101;SDS011;10709;49.006;12.100;2022-07-23T14:06:06;6.10;;;5.60;;
21101;SDS011;10709;49.006;12.100;2022-07-23T14:08:41;6.13;;;5.53;;
21101;SDS011;10709;49.006;12.100;2022-07-23T14:11:10;6.38;;;5.78;;
21101;SDS011;10709;49.006;12.100;2022-07-23T14:13:36;6.30;;;5.70;;
21101;SDS011;10709;49.006;12.100;2022-07-23T14:16:03;6.40;;;5.80;;
21101;SDS011;10709;49.006;12.100;2022-07-23T14:18:30;6.28;;;5.65;;
21101;SDS011;10709;49.006;12.100;2022-07-23T14:20:59;5.90;;;5.40;;
21101;SDS011;10709;49.006;12.100;2022-07-23T14:23:25;6.40;;;5.80;;
21101;SDS011;10709;49.006;12.100;2022-07-23T14:25:52;6.20;;;5.65;;
21101;SDS011;10709;49.006;12.100;2022-07-23T14:28:19;6.25;;;5.65;;
21101;SDS011;10709;49.006;12.100;2022-07-23T14:30:46;6.07;;;5.35;;
21101;SDS011;10709;49.006;12.100;2022-07-23T14:33:12;7.45;;;6.13;;
21101;SDS011;10709;49.006;12.100;2022-07-23T14:35:42;6.07;;;5.32;;
21101;SDS011;10709;49.006;12.100;2022-07-23T14:38:09;6.35;;;5.35;;
21101;SDS011;10709;49.006;12.100;2022-07-23T14:40:39;7.40;;;5.53;;
21101;SDS011;10709;49.006;12.100;2022-07-23T14:43:05;5.40;;;4.90;;
21101;SDS011;10709;49.006;12.100;2022-07-23T14:45:35;5.55;;;4.75;;
21101;SDS011;10709;49.006;12.100;2022-07-23T14:48:02;5.78;;;5.15;;
21101;SDS011;10709;49.006;12.100;2022-07-23T14:50:29;5.85;;;5.07;;
21101;SDS011;10709;49.006;12.100;2022-07-23T14:52:55;6.05;;;5.20;;
21101;SDS011;10709;49.006;12.100;2022-07-23T14:55:22;5.65;;;5.13;;
21101;SDS011;10709;49.006;12.100;2022-07-23T14:57:49;6.00;;;5.40;;
21101;SDS011;10709;49.006;12.100;2022-07-23T15:00:16;5.00;;;4.50;;
21101;SDS011;10709;49.006;12.100;2022-07-23T15:02:42;5.72;;;4.97;;
21101;SDS011;10709;49.006;12.100;2022-07-23T15:05:18;6.65;;;5.80;;
21101;SDS011;10709;49.006;12.100;2022-07-23T15:07:45;6.65;;;5.25;;
21101;SDS011;10709;49.006;12.100;2022-07-23T15:10:12;5.63;;;5.10;;
21101;SDS011;10709;49.006;12.100;2022-07-23T15:12:38;5.97;;;5.38;;
21101;SDS011;10709;49.006;12.100;2022-07-23T15:15:05;5.35;;;4.72;;
21101;SDS011;10709;49.006;12.100;2022-07-23T15:17:35;6.32;;;5.20;;
21101;SDS011;10709;49.006;12.100;2022-07-23T15:20:02;5.57;;;5.00;;
21101;SDS011;10709;49.006;12.100;2022-07-23T15:22:29;6.80;;;4.85;;
21101;SDS011;10709;49.006;12.100;2022-07-23T15:24:56;5.72;;;5.13;;